createdAt,value
2022-08-02T00:00:20.561Z,859.81
2022-08-02T00:01:20.634Z,859.86
2022-08-02T00:02:20.698Z,859.88
2022-08-02T00:03:20.531Z,859.80
2022-08-02T00:04:20.514Z,859.88
2022-08-02T00:05:20.505Z,860.01
2022-08-02T00:06:20.492Z,860.10
2022-08-02T00:07:20.484Z,860.18
2022-08-02T00:08:20.512Z,860.28
2022-08-02T00:09:20.457Z,860.31
2022-08-02T00:10:20.446Z,860.38
2022-08-02T00:11:20.438Z,860.37
2022-08-02T00:12:20.425Z,860.37
2022-08-02T00:13:20.422Z,860.37
2022-08-02T00:14:20.433Z,860.42
2022-08-02T00:15:20.393Z,860.44
2022-08-02T00:16:20.384Z,860.49
2022-08-02T00:17:21.374Z,860.54
2022-08-02T00:18:20.366Z,860.57
2022-08-02T00:19:20.352Z,860.57
2022-08-02T00:20:20.381Z,860.60
2022-08-02T00:21:20.329Z,860.59
2022-08-02T00:22:20.317Z,860.58
2022-08-02T00:23:20.351Z,860.65
2022-08-02T00:24:29.241Z,860.64
2022-08-02T00:25:21.286Z,860.63
2022-08-02T00:26:20.310Z,860.65
2022-08-02T00:27:20.262Z,860.61
2022-08-02T00:28:26.865Z,860.62
2022-08-02T00:29:21.240Z,860.59
2022-08-02T00:30:20.234Z,860.58
2022-08-02T00:31:20.305Z,860.59
2022-08-02T00:32:20.216Z,860.54
2022-08-02T00:34:26.723Z,860.54
2022-08-02T00:34:28.495Z,860.59
2022-08-02T00:35:21.176Z,860.55
2022-08-02T00:36:20.250Z,860.43
2022-08-02T00:37:20.182Z,860.49
2022-08-02T00:38:20.156Z,860.45
2022-08-02T00:39:20.128Z,860.49
2022-08-02T00:40:21.119Z,860.50
2022-08-02T00:41:20.113Z,860.46
2022-08-02T00:42:20.103Z,860.51
2022-08-02T00:43:20.106Z,860.51
2022-08-02T00:44:20.089Z,860.55
2022-08-02T00:45:20.062Z,860.54
2022-08-02T00:46:20.051Z,860.59
2022-08-02T00:47:20.097Z,860.54
2022-08-02T00:48:20.046Z,860.57
2022-08-02T00:49:21.359Z,860.57
2022-08-02T00:50:20.026Z,860.57
2022-08-02T00:51:20.000Z,860.55
2022-08-02T00:52:19.986Z,860.60
2022-08-02T00:53:19.987Z,860.58
2022-08-02T00:54:19.964Z,860.57
2022-08-02T00:55:30.834Z,860.64
2022-08-02T00:56:20.956Z,860.59
2022-08-02T00:57:19.954Z,860.68
2022-08-02T00:58:19.933Z,860.64
2022-08-02T00:59:19.927Z,860.68
2022-08-02T01:00:19.905Z,860.63
2022-08-02T01:01:19.950Z,860.65
2022-08-02T01:02:19.943Z,860.65
2022-08-02T01:03:19.879Z,860.66
2022-08-02T01:04:26.712Z,860.64
2022-08-02T01:05:20.861Z,860.66
2022-08-02T01:06:19.838Z,860.69
2022-08-02T01:07:19.847Z,860.68
2022-08-02T01:08:19.816Z,860.64
2022-08-02T01:09:20.816Z,860.65
2022-08-02T01:10:19.797Z,860.64
2022-08-02T01:11:19.795Z,860.59
2022-08-02T01:12:19.767Z,860.62
2022-08-02T01:13:19.800Z,860.59
2022-08-02T01:14:19.813Z,860.62
2022-08-02T01:15:19.739Z,860.61
2022-08-02T01:16:19.725Z,860.66
2022-08-02T01:17:19.718Z,860.68
2022-08-02T01:18:19.704Z,860.68
2022-08-02T01:19:19.746Z,860.72
2022-08-02T01:20:19.682Z,860.65
2022-08-02T01:21:19.672Z,860.68
2022-08-02T01:22:19.666Z,860.63
2022-08-02T01:23:19.664Z,860.62
2022-08-02T01:24:19.637Z,860.61
2022-08-02T01:25:19.673Z,860.57
2022-08-02T01:26:19.613Z,860.58
2022-08-02T01:27:19.608Z,860.54
2022-08-02T01:28:19.597Z,860.52
2022-08-02T01:29:19.583Z,860.47
2022-08-02T01:30:19.575Z,860.45
2022-08-02T01:31:19.600Z,860.42
2022-08-02T01:32:19.548Z,860.40
2022-08-02T01:33:19.553Z,860.34
2022-08-02T01:34:19.534Z,860.31
2022-08-02T01:35:19.521Z,860.32
2022-08-02T01:36:19.509Z,860.31
2022-08-02T01:37:19.534Z,860.26
2022-08-02T01:38:19.486Z,860.25
2022-08-02T01:39:26.648Z,860.30
2022-08-02T01:40:20.469Z,860.26
2022-08-02T01:41:19.469Z,860.25
2022-08-02T01:42:19.446Z,860.21
2022-08-02T01:43:19.449Z,860.24
2022-08-02T01:44:19.417Z,860.22
2022-08-02T01:45:20.412Z,860.18
2022-08-02T01:46:19.415Z,860.19
2022-08-02T01:47:19.389Z,860.20
2022-08-02T01:48:19.375Z,860.17
2022-08-02T01:49:19.454Z,860.16
2022-08-02T01:50:19.356Z,860.18
2022-08-02T01:51:19.353Z,860.11
2022-08-02T01:52:19.343Z,860.11
2022-08-02T01:53:19.325Z,860.14
2022-08-02T01:54:19.308Z,860.12
2022-08-02T01:55:19.381Z,860.15
2022-08-02T01:56:19.284Z,860.12
2022-08-02T01:57:19.288Z,860.04
2022-08-02T01:58:19.263Z,860.07
2022-08-02T01:59:19.263Z,860.02
2022-08-02T02:00:19.242Z,860.05
2022-08-02T02:01:19.426Z,860.04
2022-08-02T02:02:19.239Z,860.00
2022-08-02T02:03:19.214Z,860.01
2022-08-02T02:04:19.198Z,859.97
2022-08-02T02:05:19.190Z,859.95
2022-08-02T02:06:19.180Z,859.90
2022-08-02T02:07:19.193Z,859.90
2022-08-02T02:08:27.385Z,859.86
2022-08-02T02:09:20.186Z,859.80
2022-08-02T02:10:19.137Z,859.78
2022-08-02T02:12:08.645Z,859.72
2022-08-02T02:12:20.746Z,859.71
2022-08-02T02:13:19.138Z,859.64
2022-08-02T02:14:19.096Z,859.63
2022-08-02T02:15:19.084Z,859.61
2022-08-02T02:16:19.076Z,859.55
2022-08-02T02:18:11.865Z,859.57
2022-08-02T02:18:20.062Z,859.56
2022-08-02T02:19:20.944Z,859.54
2022-08-02T02:20:19.020Z,859.51
2022-08-02T02:21:19.012Z,859.50
2022-08-02T02:22:19.026Z,859.47
2022-08-02T02:23:19.002Z,859.47
2022-08-02T02:24:19.984Z,859.46
2022-08-02T02:25:18.984Z,859.50
2022-08-02T02:26:29.601Z,859.43
2022-08-02T02:27:19.960Z,859.45
2022-08-02T02:28:18.939Z,859.44
2022-08-02T02:29:18.927Z,859.43
2022-08-02T02:30:18.911Z,859.41
2022-08-02T02:31:18.921Z,859.39
2022-08-02T02:32:18.888Z,859.39
2022-08-02T02:33:18.911Z,859.39
2022-08-02T02:34:18.865Z,859.39
2022-08-02T02:35:18.860Z,859.38
2022-08-02T02:36:18.846Z,859.38
2022-08-02T02:37:18.882Z,859.36
2022-08-02T02:38:18.824Z,859.38
2022-08-02T02:39:18.830Z,859.36
2022-08-02T02:40:18.804Z,859.32
2022-08-02T02:41:18.867Z,859.35
2022-08-02T02:42:18.780Z,859.30
2022-08-02T02:43:18.822Z,859.32
2022-08-02T02:44:18.760Z,859.31
2022-08-02T02:45:18.771Z,859.33
2022-08-02T02:46:18.735Z,859.37
2022-08-02T02:47:18.741Z,859.32
2022-08-02T02:48:18.721Z,859.30
2022-08-02T02:49:18.798Z,859.28
2022-08-02T02:50:18.700Z,859.26
2022-08-02T02:51:18.685Z,859.25
2022-08-02T02:52:18.777Z,859.20
2022-08-02T02:53:18.660Z,859.20
2022-08-02T02:54:32.328Z,859.18
2022-08-02T02:55:19.676Z,859.16
2022-08-02T02:56:18.631Z,859.12
2022-08-02T02:57:18.619Z,859.13
2022-08-02T02:58:18.617Z,859.13
2022-08-02T02:59:18.603Z,859.08
2022-08-02T03:00:18.585Z,859.12
2022-08-02T03:01:18.701Z,859.07
2022-08-02T03:02:18.566Z,859.05
2022-08-02T03:03:19.725Z,859.01
2022-08-02T03:04:18.541Z,859.02
2022-08-02T03:05:18.528Z,858.98
2022-08-02T03:06:18.518Z,858.97
2022-08-02T03:07:18.521Z,858.96
2022-08-02T03:08:18.499Z,859.00
2022-08-02T03:09:18.500Z,858.96
2022-08-02T03:10:18.470Z,858.95
2022-08-02T03:11:18.460Z,858.93
2022-08-02T03:12:20.113Z,858.91
2022-08-02T03:13:18.467Z,858.90
2022-08-02T03:14:18.431Z,858.89
2022-08-02T03:15:18.430Z,858.89
2022-08-02T03:16:18.408Z,858.96
2022-08-02T03:17:18.396Z,858.92
2022-08-02T03:18:18.386Z,858.91
2022-08-02T03:19:18.394Z,858.94
2022-08-02T03:20:18.378Z,858.94
2022-08-02T03:21:18.370Z,858.94
2022-08-02T03:22:18.340Z,858.92
2022-08-02T03:23:18.370Z,858.92
2022-08-02T03:24:28.102Z,858.86
2022-08-02T03:25:19.336Z,858.94
2022-08-02T03:26:18.303Z,858.91
2022-08-02T03:27:18.298Z,858.90
2022-08-02T03:28:18.279Z,858.90
2022-08-02T03:29:18.266Z,858.88
2022-08-02T03:30:18.265Z,858.88
2022-08-02T03:31:18.250Z,858.88
2022-08-02T03:32:18.233Z,858.85
2022-08-02T03:33:18.248Z,858.84
2022-08-02T03:34:18.205Z,858.80
2022-08-02T03:35:23.300Z,858.86
2022-08-02T03:36:19.210Z,858.80
2022-08-02T03:37:18.232Z,858.80
2022-08-02T03:38:18.167Z,858.81
2022-08-02T03:39:18.193Z,858.80
2022-08-02T03:40:18.157Z,858.80
2022-08-02T03:41:18.136Z,858.85
2022-08-02T03:42:18.124Z,858.81
2022-08-02T03:43:18.132Z,858.88
2022-08-02T03:44:18.095Z,858.90
2022-08-02T03:45:18.110Z,858.91
2022-08-02T03:46:18.079Z,858.90
2022-08-02T03:47:18.065Z,858.92
2022-08-02T03:48:33.746Z,858.94
2022-08-02T03:49:19.113Z,858.96
2022-08-02T03:50:18.029Z,858.98
2022-08-02T03:51:18.017Z,858.95
2022-08-02T03:52:18.023Z,858.95
2022-08-02T03:53:20.187Z,859.00
2022-08-02T03:54:18.002Z,858.97
2022-08-02T03:55:17.980Z,859.02
2022-08-02T03:56:17.962Z,858.98
2022-08-02T03:57:17.949Z,858.96
2022-08-02T03:58:17.963Z,858.97
2022-08-02T03:59:17.939Z,858.97
2022-08-02T04:00:17.922Z,858.92
2022-08-02T04:01:17.959Z,858.88
2022-08-02T04:02:17.894Z,858.90
2022-08-02T04:03:20.027Z,858.90
2022-08-02T04:04:17.922Z,858.88
2022-08-02T04:05:17.862Z,858.92
2022-08-02T04:06:17.855Z,858.86
2022-08-02T04:08:34.409Z,858.90
2022-08-02T04:08:35.965Z,858.88
2022-08-02T04:09:18.827Z,858.84
2022-08-02T04:10:17.857Z,858.86
2022-08-02T04:11:17.802Z,858.83
2022-08-02T04:12:17.786Z,858.81
2022-08-02T04:13:17.766Z,858.81
2022-08-02T04:14:17.767Z,858.79
2022-08-02T04:15:17.745Z,858.80
2022-08-02T04:16:17.775Z,858.76
2022-08-02T04:17:17.725Z,858.76
2022-08-02T04:18:17.731Z,858.73
2022-08-02T04:19:17.697Z,858.71
2022-08-02T04:20:17.692Z,858.73
2022-08-02T04:21:17.677Z,858.69
2022-08-02T04:22:17.705Z,858.70
2022-08-02T04:23:17.655Z,858.73
2022-08-02T04:24:18.749Z,858.76
2022-08-02T04:25:17.709Z,858.70
2022-08-02T04:26:17.641Z,858.70
2022-08-02T04:27:48.940Z,858.68
2022-08-02T04:28:18.695Z,858.68
2022-08-02T04:29:18.596Z,858.72
2022-08-02T04:30:17.579Z,858.66
2022-08-02T04:31:17.566Z,858.64
2022-08-02T04:32:17.554Z,858.61
2022-08-02T04:33:17.557Z,858.60
2022-08-02T04:34:17.546Z,858.64
2022-08-02T04:35:20.016Z,858.63
2022-08-02T04:36:31.683Z,858.67
2022-08-02T04:37:18.516Z,858.59
2022-08-02T04:38:17.491Z,858.67
2022-08-02T04:39:17.474Z,858.71
2022-08-02T04:40:17.482Z,858.73
2022-08-02T04:41:17.450Z,858.70
2022-08-02T04:42:17.445Z,858.71
2022-08-02T04:43:17.445Z,858.67
2022-08-02T04:44:17.431Z,858.74
2022-08-02T04:45:17.418Z,858.76
2022-08-02T04:46:17.407Z,858.74
2022-08-02T04:47:29.569Z,858.75
2022-08-02T04:48:18.479Z,858.80
2022-08-02T04:49:17.438Z,858.81
2022-08-02T04:50:17.354Z,858.84
2022-08-02T04:51:17.450Z,858.85
2022-08-02T04:52:17.330Z,858.86
2022-08-02T04:53:17.348Z,858.87
2022-08-02T04:54:17.332Z,858.93
2022-08-02T04:55:17.297Z,858.91
2022-08-02T04:56:17.301Z,858.93
2022-08-02T04:57:17.273Z,858.92
2022-08-02T04:58:39.942Z,858.93
2022-08-02T04:59:18.305Z,858.94
2022-08-02T05:00:17.299Z,859.01
2022-08-02T05:01:17.301Z,859.04
2022-08-02T05:02:17.235Z,859.09
2022-08-02T05:03:17.209Z,859.02
2022-08-02T05:04:17.210Z,859.06
2022-08-02T05:05:17.216Z,859.02
2022-08-02T05:06:19.160Z,859.07
2022-08-02T05:07:17.171Z,859.05
2022-08-02T05:08:17.162Z,859.09
2022-08-02T05:09:17.161Z,858.98
2022-08-02T05:10:17.880Z,858.99
2022-08-02T05:11:17.122Z,859.03
2022-08-02T05:12:17.615Z,859.00
2022-08-02T05:13:17.101Z,859.02
2022-08-02T05:14:17.101Z,859.03
2022-08-02T05:15:17.074Z,859.07
2022-08-02T05:16:17.069Z,859.08
2022-08-02T05:17:17.057Z,859.07
2022-08-02T05:18:17.140Z,859.09
2022-08-02T05:19:17.045Z,859.08
2022-08-02T05:20:17.031Z,859.04
2022-08-02T05:21:17.019Z,859.07
2022-08-02T05:22:17.001Z,859.08
2022-08-02T05:23:16.990Z,859.09
2022-08-02T05:24:17.016Z,859.05
2022-08-02T05:25:16.978Z,859.03
2022-08-02T05:26:16.956Z,859.08
2022-08-02T05:27:21.820Z,859.07
2022-08-02T05:28:17.940Z,859.10
2022-08-02T05:29:16.925Z,859.12
2022-08-02T05:30:16.928Z,859.06
2022-08-02T05:31:16.922Z,859.10
2022-08-02T05:32:16.888Z,859.11
2022-08-02T05:33:16.882Z,859.13
2022-08-02T05:34:16.867Z,859.15
2022-08-02T05:35:16.862Z,859.15
2022-08-02T05:36:16.864Z,859.18
2022-08-02T05:37:16.891Z,859.21
2022-08-02T05:38:16.824Z,859.18
2022-08-02T05:39:19.038Z,859.19
2022-08-02T05:40:16.803Z,859.19
2022-08-02T05:41:16.795Z,859.23
2022-08-02T05:42:16.785Z,859.20
2022-08-02T05:43:16.810Z,859.20
2022-08-02T05:44:16.760Z,859.19
2022-08-02T05:45:16.746Z,859.27
2022-08-02T05:46:16.759Z,859.23
2022-08-02T05:47:16.726Z,859.20
2022-08-02T05:48:16.725Z,859.18
2022-08-02T05:49:16.790Z,859.17
2022-08-02T05:50:16.690Z,859.20
2022-08-02T05:51:16.687Z,859.23
2022-08-02T05:52:16.722Z,859.19
2022-08-02T05:53:16.657Z,859.16
2022-08-02T05:54:16.657Z,859.15
2022-08-02T05:55:16.685Z,859.15
2022-08-02T05:56:16.637Z,859.13
2022-08-02T05:57:16.650Z,859.13
2022-08-02T05:58:16.607Z,859.09
2022-08-02T05:59:16.604Z,859.11
2022-08-02T06:00:16.596Z,859.07
2022-08-02T06:01:16.612Z,859.10
2022-08-02T06:02:16.648Z,859.13
2022-08-02T06:03:16.566Z,859.09
2022-08-02T06:04:16.540Z,859.11
2022-08-02T06:05:16.540Z,859.11
2022-08-02T06:06:16.528Z,859.09
2022-08-02T06:07:16.508Z,859.17
2022-08-02T06:08:16.504Z,859.19
2022-08-02T06:09:16.533Z,859.16
2022-08-02T06:10:17.475Z,859.15
2022-08-02T06:11:16.463Z,859.16
2022-08-02T06:12:16.770Z,859.14
2022-08-02T06:13:16.439Z,859.16
2022-08-02T06:14:16.429Z,859.15
2022-08-02T06:15:16.465Z,859.16
2022-08-02T06:16:16.408Z,859.15
2022-08-02T06:17:16.392Z,859.14
2022-08-02T06:18:16.392Z,859.13
2022-08-02T06:19:16.380Z,859.12
2022-08-02T06:20:16.377Z,859.12
2022-08-02T06:22:31.513Z,859.14
2022-08-02T06:22:35.977Z,859.13
2022-08-02T06:23:17.333Z,859.15
2022-08-02T06:24:16.321Z,859.14
2022-08-02T06:25:49.902Z,859.13
2022-08-02T06:26:17.299Z,859.14
2022-08-02T06:27:16.302Z,859.15
2022-08-02T06:28:16.279Z,859.18
2022-08-02T06:29:16.293Z,859.13
2022-08-02T06:30:16.275Z,859.09
2022-08-02T06:31:16.255Z,859.11
2022-08-02T06:32:16.236Z,859.09
2022-08-02T06:33:16.258Z,859.12
2022-08-02T06:34:16.222Z,859.08
2022-08-02T06:35:16.209Z,859.08
2022-08-02T06:36:16.218Z,859.07
2022-08-02T06:37:16.179Z,859.09
2022-08-02T06:38:16.166Z,859.03
2022-08-02T06:39:16.161Z,859.05
2022-08-02T06:40:16.175Z,859.04
2022-08-02T06:41:16.139Z,859.06
2022-08-02T06:42:16.159Z,859.05
2022-08-02T06:43:16.168Z,859.05
2022-08-02T06:45:17.098Z,859.10
2022-08-02T06:46:38.075Z,859.04
2022-08-02T06:47:17.087Z,859.05
2022-08-02T06:48:16.073Z,859.05
2022-08-02T06:49:16.159Z,859.03
2022-08-02T06:50:16.040Z,859.03
2022-08-02T06:51:16.023Z,859.01
2022-08-02T06:52:18.972Z,858.97
2022-08-02T06:53:16.017Z,859.02
2022-08-02T06:54:16.000Z,859.02
2022-08-02T06:55:15.973Z,859.01
2022-08-02T06:56:15.970Z,858.97
2022-08-02T06:57:15.957Z,858.97
2022-08-02T06:58:15.944Z,859.00
2022-08-02T06:59:15.998Z,858.96
2022-08-02T07:00:15.957Z,858.94
2022-08-02T07:01:15.962Z,858.96
2022-08-02T07:02:15.918Z,858.93
2022-08-02T07:03:15.890Z,858.92
2022-08-02T07:04:19.927Z,858.94
2022-08-02T07:05:15.895Z,858.96
2022-08-02T07:06:15.864Z,858.93
2022-08-02T07:07:15.870Z,858.95
2022-08-02T07:08:15.839Z,858.94
2022-08-02T07:09:20.935Z,858.89
2022-08-02T07:10:16.855Z,858.91
2022-08-02T07:11:15.805Z,858.90
2022-08-02T07:12:15.790Z,858.90
2022-08-02T07:13:15.774Z,858.89
2022-08-02T07:14:15.762Z,858.90
2022-08-02T07:15:15.768Z,858.90
2022-08-02T07:16:15.762Z,858.93
2022-08-02T07:17:15.763Z,858.89
2022-08-02T07:18:15.721Z,858.90
2022-08-02T07:19:15.717Z,858.89
2022-08-02T07:20:15.709Z,858.93
2022-08-02T07:21:15.705Z,858.90
2022-08-02T07:22:16.114Z,858.93
2022-08-02T07:23:15.669Z,858.93
2022-08-02T07:24:15.679Z,858.90
2022-08-02T07:25:15.650Z,858.90
2022-08-02T07:26:15.635Z,858.91
2022-08-02T07:27:15.696Z,858.91
2022-08-02T07:28:24.059Z,858.90
2022-08-02T07:29:16.607Z,858.88
2022-08-02T07:30:15.607Z,858.89
2022-08-02T07:31:15.576Z,858.85
2022-08-02T07:32:15.936Z,858.87
2022-08-02T07:33:37.339Z,858.85
2022-08-02T07:34:16.549Z,858.87
2022-08-02T07:35:16.348Z,858.83
2022-08-02T07:36:16.980Z,858.82
2022-08-02T07:37:35.485Z,858.81
2022-08-02T07:38:16.502Z,858.74
2022-08-02T07:39:29.143Z,858.76
2022-08-02T07:40:20.296Z,858.74
2022-08-02T07:41:16.475Z,858.74
2022-08-02T07:42:15.454Z,858.69
2022-08-02T07:43:15.448Z,858.68
2022-08-02T07:44:31.019Z,858.68
2022-08-02T07:45:31.021Z,858.67
2022-08-02T07:46:31.017Z,858.63
2022-08-02T07:47:30.985Z,858.62
2022-08-02T07:48:31.019Z,858.61
2022-08-02T07:49:31.054Z,858.66
2022-08-02T07:50:30.953Z,858.64
2022-08-02T07:51:30.979Z,858.62
2022-08-02T07:52:30.955Z,858.59
2022-08-02T07:53:50.142Z,858.63
2022-08-02T07:54:31.925Z,858.59
2022-08-02T07:55:39.095Z,858.62
2022-08-02T07:56:31.894Z,858.62
2022-08-02T07:57:30.946Z,858.57
2022-08-02T07:58:30.884Z,858.62
2022-08-02T07:59:30.906Z,858.61
2022-08-02T08:00:30.841Z,858.62
2022-08-02T08:01:30.950Z,858.57
2022-08-02T08:02:30.929Z,858.62
2022-08-02T08:03:30.816Z,858.60
2022-08-02T08:04:30.806Z,858.58
2022-08-02T08:05:30.814Z,858.57
2022-08-02T08:06:30.782Z,858.58
2022-08-02T08:07:30.780Z,858.56
2022-08-02T08:08:30.781Z,858.58
2022-08-02T08:09:30.747Z,858.55
2022-08-02T08:10:30.733Z,858.58
2022-08-02T08:11:30.733Z,858.56
2022-08-02T08:12:30.723Z,858.56
2022-08-02T08:13:30.711Z,858.56
2022-08-02T08:14:30.704Z,858.60
2022-08-02T08:15:30.694Z,858.60
2022-08-02T08:16:30.674Z,858.64
2022-08-02T08:17:30.664Z,858.61
2022-08-02T08:18:30.659Z,858.58
2022-08-02T08:19:34.895Z,858.56
2022-08-02T08:20:31.731Z,858.54
2022-08-02T08:21:30.749Z,858.59
2022-08-02T08:22:30.610Z,858.53
2022-08-02T08:23:30.594Z,858.53
2022-08-02T08:24:30.600Z,858.55
2022-08-02T08:25:30.660Z,858.58
2022-08-02T08:26:31.575Z,858.54
2022-08-02T08:27:30.566Z,858.54
2022-08-02T08:28:30.565Z,858.53
2022-08-02T08:29:30.554Z,858.54
2022-08-02T08:30:30.554Z,858.57
2022-08-02T08:31:30.520Z,858.60
2022-08-02T08:32:30.551Z,858.60
2022-08-02T08:33:30.524Z,858.57
2022-08-02T08:34:30.478Z,858.58
2022-08-02T08:35:30.502Z,858.61
2022-08-02T08:36:30.463Z,858.56
2022-08-02T08:37:30.478Z,858.54
2022-08-02T08:38:30.469Z,858.56
2022-08-02T08:39:30.467Z,858.56
2022-08-02T08:40:30.418Z,858.57
2022-08-02T08:41:30.414Z,858.60
2022-08-02T08:42:30.498Z,858.60
2022-08-02T08:43:30.379Z,858.59
2022-08-02T08:44:30.432Z,858.54
2022-08-02T08:45:30.363Z,858.61
2022-08-02T08:46:30.642Z,858.61
2022-08-02T08:47:33.561Z,858.58
2022-08-02T08:48:31.892Z,858.59
2022-08-02T08:49:30.367Z,858.54
2022-08-02T08:50:32.252Z,858.58
2022-08-02T08:51:30.293Z,858.57
2022-08-02T08:52:30.314Z,858.56
2022-08-02T08:53:36.691Z,858.55
2022-08-02T08:54:31.315Z,858.52
2022-08-02T08:55:30.244Z,858.51
2022-08-02T08:56:30.240Z,858.50
2022-08-02T08:57:30.225Z,858.49
2022-08-02T08:58:30.235Z,858.47
2022-08-02T08:59:30.202Z,858.51
2022-08-02T09:00:31.202Z,858.46
2022-08-02T09:01:49.735Z,858.47
2022-08-02T09:02:31.328Z,858.48
2022-08-02T09:03:34.038Z,858.43
2022-08-02T09:04:30.173Z,858.43
2022-08-02T09:05:30.147Z,858.47
2022-08-02T09:06:30.133Z,858.48
2022-08-02T09:07:30.127Z,858.45
2022-08-02T09:08:30.114Z,858.46
2022-08-02T09:09:30.228Z,858.43
2022-08-02T09:10:30.187Z,858.44
2022-08-02T09:11:30.079Z,858.40
2022-08-02T09:12:30.089Z,858.40
2022-08-02T09:13:38.086Z,858.38
2022-08-02T09:14:31.069Z,858.35
2022-08-02T09:15:30.033Z,858.38
2022-08-02T09:16:30.032Z,858.40
2022-08-02T09:17:30.029Z,858.43
2022-08-02T09:18:30.021Z,858.45
2022-08-02T09:19:29.989Z,858.48
2022-08-02T09:20:30.874Z,858.48
2022-08-02T09:21:30.027Z,858.48
2022-08-02T09:22:29.958Z,858.44
2022-08-02T09:23:29.956Z,858.41
2022-08-02T09:24:31.744Z,858.42
2022-08-02T09:25:29.936Z,858.40
2022-08-02T09:26:29.925Z,858.39
2022-08-02T09:27:29.902Z,858.36
2022-08-02T09:28:29.892Z,858.42
2022-08-02T09:29:29.904Z,858.40
2022-08-02T09:30:29.882Z,858.39
2022-08-02T09:31:29.886Z,858.38
2022-08-02T09:32:29.848Z,858.34
2022-08-02T09:33:29.958Z,858.35
2022-08-02T09:34:29.827Z,858.34
2022-08-02T09:35:29.872Z,858.32
2022-08-02T09:36:30.815Z,858.33
2022-08-02T09:37:29.797Z,858.32
2022-08-02T09:38:29.792Z,858.32
2022-08-02T09:39:29.767Z,858.33
2022-08-02T09:40:29.762Z,858.37
2022-08-02T09:41:29.784Z,858.35
2022-08-02T09:42:30.634Z,858.33
2022-08-02T09:43:29.736Z,858.32
2022-08-02T09:44:29.722Z,858.28
2022-08-02T09:45:29.706Z,858.33
2022-08-02T09:46:29.700Z,858.32
2022-08-02T09:47:31.120Z,858.34
2022-08-02T09:48:29.671Z,858.35
2022-08-02T09:49:29.695Z,858.31
2022-08-02T09:50:29.650Z,858.31
2022-08-02T09:51:29.652Z,858.29
2022-08-02T09:52:37.050Z,858.26
2022-08-02T09:53:30.645Z,858.27
2022-08-02T09:54:29.619Z,858.27
2022-08-02T09:55:29.601Z,858.28
2022-08-02T09:56:35.514Z,858.23
2022-08-02T09:57:30.623Z,858.26
2022-08-02T09:58:29.563Z,858.27
2022-08-02T09:59:29.589Z,858.26
2022-08-02T10:00:51.665Z,858.25
2022-08-02T10:01:37.009Z,858.23
2022-08-02T10:02:30.605Z,858.27
2022-08-02T10:03:35.119Z,858.27
2022-08-02T10:04:30.902Z,858.27
2022-08-02T10:05:29.487Z,858.24
2022-08-02T10:06:29.485Z,858.21
2022-08-02T10:07:29.491Z,858.21
2022-08-02T10:08:29.457Z,858.19
2022-08-02T10:09:29.468Z,858.21
2022-08-02T10:10:29.542Z,858.22
2022-08-02T10:11:29.425Z,858.18
2022-08-02T10:12:29.410Z,858.13
2022-08-02T10:13:29.416Z,858.12
2022-08-02T10:14:29.404Z,858.13
2022-08-02T10:15:29.380Z,858.14
2022-08-02T10:16:29.381Z,858.10
2022-08-02T10:17:29.389Z,858.10
2022-08-02T10:18:38.690Z,858.09
2022-08-02T10:20:03.048Z,858.10
2022-08-02T10:20:30.323Z,858.08
2022-08-02T10:21:29.335Z,858.10
2022-08-02T10:22:29.319Z,858.10
2022-08-02T10:23:29.295Z,858.11
2022-08-02T10:24:29.331Z,858.12
2022-08-02T10:25:29.386Z,858.08
2022-08-02T10:26:29.265Z,858.09
2022-08-02T10:27:42.974Z,858.10
2022-08-02T10:28:30.251Z,858.06
2022-08-02T10:29:29.231Z,858.06
2022-08-02T10:30:30.234Z,858.00
2022-08-02T10:31:29.219Z,857.98
2022-08-02T10:32:29.205Z,857.96
2022-08-02T10:33:29.212Z,857.99
2022-08-02T10:34:31.825Z,857.94
2022-08-02T10:35:29.164Z,858.00
2022-08-02T10:36:29.192Z,857.97
2022-08-02T10:37:29.163Z,857.97
2022-08-02T10:38:29.135Z,857.98
2022-08-02T10:39:29.205Z,857.96
2022-08-02T10:40:29.117Z,858.00
2022-08-02T10:41:29.102Z,857.96
2022-08-02T10:42:29.101Z,857.97
2022-08-02T10:43:29.091Z,857.96
2022-08-02T10:44:29.078Z,857.94
2022-08-02T10:45:29.087Z,857.94
2022-08-02T10:46:29.046Z,857.93
2022-08-02T10:47:29.042Z,857.94
2022-08-02T10:48:29.045Z,857.96
2022-08-02T10:49:44.463Z,857.89
2022-08-02T10:50:30.028Z,857.91
2022-08-02T10:51:31.873Z,857.92
2022-08-02T10:52:29.977Z,857.93
2022-08-02T10:53:28.977Z,857.91
2022-08-02T10:54:28.982Z,857.84
2022-08-02T10:55:28.958Z,857.87
2022-08-02T10:56:28.950Z,857.88
2022-08-02T10:57:28.944Z,857.83
2022-08-02T10:58:29.410Z,857.84
2022-08-02T10:59:28.906Z,857.83
2022-08-02T11:00:28.906Z,857.81
2022-08-02T11:01:38.770Z,857.78
2022-08-02T11:02:29.886Z,857.81
2022-08-02T11:03:28.870Z,857.79
2022-08-02T11:04:28.850Z,857.75
2022-08-02T11:05:28.859Z,857.76
2022-08-02T11:06:29.841Z,857.76
2022-08-02T11:07:28.820Z,857.77
2022-08-02T11:08:28.816Z,857.74
2022-08-02T11:09:32.314Z,857.68
2022-08-02T11:10:28.790Z,857.68
2022-08-02T11:11:53.875Z,857.69
2022-08-02T11:12:29.775Z,857.69
2022-08-02T11:13:28.766Z,857.69
2022-08-02T11:14:28.741Z,857.67
2022-08-02T11:15:28.735Z,857.69
2022-08-02T11:16:28.719Z,857.70
2022-08-02T11:17:28.744Z,857.73
2022-08-02T11:18:29.702Z,857.70
2022-08-02T11:19:28.700Z,857.71
2022-08-02T11:20:28.673Z,857.64
2022-08-02T11:21:28.670Z,857.70
2022-08-02T11:22:28.662Z,857.65
2022-08-02T11:23:44.129Z,857.68
2022-08-02T11:24:29.644Z,857.65
2022-08-02T11:25:43.022Z,857.61
2022-08-02T11:26:29.626Z,857.54
2022-08-02T11:27:28.618Z,857.58
2022-08-02T11:28:28.635Z,857.60
2022-08-02T11:29:28.592Z,857.59
2022-08-02T11:30:28.592Z,857.60
2022-08-02T11:31:28.557Z,857.51
2022-08-02T11:32:31.284Z,857.53
2022-08-02T11:33:28.552Z,857.54
2022-08-02T11:34:36.813Z,857.49
2022-08-02T11:35:29.621Z,857.54
2022-08-02T11:36:28.544Z,857.52
2022-08-02T11:37:28.503Z,857.55
2022-08-02T11:38:28.494Z,857.47
2022-08-02T11:39:28.496Z,857.48
2022-08-02T11:40:28.471Z,857.47
2022-08-02T11:41:46.516Z,857.45
2022-08-02T11:42:29.461Z,857.46
2022-08-02T11:43:28.430Z,857.47
2022-08-02T11:44:28.433Z,857.46
2022-08-02T11:45:29.957Z,857.45
2022-08-02T11:46:28.431Z,857.43
2022-08-02T11:47:28.393Z,857.41
2022-08-02T11:48:28.377Z,857.43
2022-08-02T11:49:28.424Z,857.42
2022-08-02T11:50:30.148Z,857.38
2022-08-02T11:51:28.357Z,857.37
2022-08-02T11:52:28.351Z,857.34
2022-08-02T11:53:28.331Z,857.38
2022-08-02T11:54:28.337Z,857.36
2022-08-02T11:55:28.312Z,857.39
2022-08-02T11:56:28.313Z,857.36
2022-08-02T11:57:28.296Z,857.37
2022-08-02T11:58:29.268Z,857.36
2022-08-02T11:59:28.271Z,857.36
2022-08-02T12:00:30.889Z,857.38
2022-08-02T12:01:28.247Z,857.33
2022-08-02T12:02:28.771Z,857.34
2022-08-02T12:03:28.287Z,857.33
2022-08-02T12:04:28.270Z,857.32
2022-08-02T12:06:03.045Z,857.32
2022-08-02T12:06:29.192Z,857.38
2022-08-02T12:07:31.958Z,857.34
2022-08-02T12:08:29.187Z,857.35
2022-08-02T12:09:28.161Z,857.36
2022-08-02T12:10:28.144Z,857.35
2022-08-02T12:11:28.153Z,857.33
2022-08-02T12:12:29.137Z,857.34
2022-08-02T12:13:28.136Z,857.32
2022-08-02T12:14:28.145Z,857.34
2022-08-02T12:15:28.092Z,857.36
2022-08-02T12:16:28.084Z,857.32
2022-08-02T12:17:28.072Z,857.32
2022-08-02T12:18:28.097Z,857.30
2022-08-02T12:19:28.063Z,857.34
2022-08-02T12:20:28.066Z,857.33
2022-08-02T12:21:28.031Z,857.36
2022-08-02T12:22:28.021Z,857.29
2022-08-02T12:23:28.014Z,857.25
2022-08-02T12:24:28.011Z,857.28
2022-08-02T12:25:34.598Z,857.26
2022-08-02T12:26:28.991Z,857.23
2022-08-02T12:27:27.976Z,857.27
2022-08-02T12:28:27.965Z,857.27
2022-08-02T12:29:57.653Z,857.24